createdAt,value
2022-07-27T00:00:05.038Z,33.60
2022-07-27T00:00:33.754Z,33.56
2022-07-27T00:00:55.731Z,33.96
2022-07-27T00:01:17.911Z,33.43
2022-07-27T00:01:40.770Z,33.63
2022-07-27T00:02:13.081Z,33.26
2022-07-27T00:02:34.879Z,33.48
2022-07-27T00:02:57.037Z,33.73
2022-07-27T00:03:19.769Z,33.76
2022-07-27T00:03:42.251Z,33.29
2022-07-27T00:04:04.122Z,33.71
2022-07-27T00:04:26.230Z,33.50
2022-07-27T00:04:49.726Z,33.87
2022-07-27T00:05:11.500Z,33.39
2022-07-27T00:05:33.232Z,33.75
2022-07-27T00:05:55.155Z,33.91
2022-07-27T00:06:17.807Z,33.84
2022-07-27T00:06:39.525Z,33.54
2022-07-27T00:07:01.172Z,33.56
2022-07-27T00:07:22.983Z,33.86
2022-07-27T00:07:45.661Z,33.77
2022-07-27T00:08:07.407Z,33.67
2022-07-27T00:08:29.055Z,33.35
2022-07-27T00:08:50.835Z,33.76
2022-07-27T00:09:13.912Z,33.36
2022-07-27T00:09:35.933Z,33.58
2022-07-27T00:09:57.666Z,33.68
2022-07-27T00:10:19.373Z,33.82
2022-07-27T00:10:41.388Z,33.93
2022-07-27T00:11:04.281Z,33.79
2022-07-27T00:11:27.476Z,33.30
2022-07-27T00:11:49.135Z,33.25
2022-07-27T00:12:10.819Z,32.88
2022-07-27T00:12:33.553Z,33.21
2022-07-27T00:12:55.405Z,33.41
2022-07-27T00:13:17.123Z,33.70
2022-07-27T00:13:39.158Z,33.44
2022-07-27T00:14:01.838Z,33.81
2022-07-27T00:14:23.533Z,34.21
2022-07-27T00:14:45.216Z,33.62
2022-07-27T00:15:08.325Z,33.69
2022-07-27T00:15:31.430Z,34.01
2022-07-27T00:15:53.199Z,34.18
2022-07-27T00:16:15.021Z,33.91
2022-07-27T00:16:38.138Z,33.96
2022-07-27T00:17:00.087Z,33.35
2022-07-27T00:17:23.874Z,33.85
2022-07-27T00:17:45.580Z,33.69
2022-07-27T00:18:07.522Z,33.91
2022-07-27T00:18:30.224Z,33.96
2022-07-27T00:18:52.037Z,34.19
2022-07-27T00:19:14.041Z,34.12
2022-07-27T00:19:36.892Z,33.82
2022-07-27T00:19:58.619Z,34.02
2022-07-27T00:20:27.007Z,33.92
2022-07-27T00:20:49.222Z,34.26
2022-07-27T00:21:11.917Z,34.14
2022-07-27T00:21:33.833Z,34.39
2022-07-27T00:21:58.511Z,34.59
2022-07-27T00:22:20.209Z,34.07
2022-07-27T00:22:42.856Z,34.31
2022-07-27T00:23:04.755Z,34.33
2022-07-27T00:23:26.484Z,34.10
2022-07-27T00:23:49.202Z,33.92
2022-07-27T00:24:10.950Z,33.49
2022-07-27T00:24:32.618Z,33.74
2022-07-27T00:24:54.292Z,33.84
2022-07-27T00:25:16.899Z,33.73
2022-07-27T00:25:38.642Z,33.47
2022-07-27T00:26:00.381Z,34.19
2022-07-27T00:26:22.420Z,34.06
2022-07-27T00:26:46.436Z,34.38
2022-07-27T00:27:08.228Z,34.29
2022-07-27T00:28:09.418Z,34.25
2022-07-27T00:28:32.170Z,33.89
2022-07-27T00:28:53.894Z,33.74
2022-07-27T00:29:15.771Z,33.57
2022-07-27T00:29:37.484Z,33.80
2022-07-27T00:30:00.181Z,34.26
2022-07-27T00:30:21.962Z,34.36
2022-07-27T00:30:43.633Z,34.01
2022-07-27T00:31:06.017Z,34.07
2022-07-27T00:31:28.771Z,34.32
2022-07-27T00:31:50.473Z,33.75
2022-07-27T00:32:12.996Z,34.42
2022-07-27T00:32:34.638Z,34.29
2022-07-27T00:32:57.003Z,34.34
2022-07-27T00:33:19.677Z,33.98
2022-07-27T00:33:41.641Z,34.17
2022-07-27T00:34:03.394Z,34.17
2022-07-27T00:34:25.105Z,34.03
2022-07-27T00:34:48.876Z,34.08
2022-07-27T00:35:10.838Z,34.25
2022-07-27T00:35:35.848Z,34.47
2022-07-27T00:35:58.951Z,34.56
2022-07-27T00:36:20.704Z,34.63
2022-07-27T00:36:42.366Z,34.64
2022-07-27T00:37:05.121Z,34.50
2022-07-27T00:37:26.750Z,34.46
2022-07-27T00:37:48.442Z,34.04
2022-07-27T00:38:10.224Z,34.01
2022-07-27T00:38:32.984Z,34.08
2022-07-27T00:38:54.789Z,34.49
2022-07-27T00:39:16.609Z,34.52
2022-07-27T00:39:38.334Z,34.74
2022-07-27T00:40:00.943Z,34.81
2022-07-27T00:40:23.490Z,34.49
2022-07-27T00:40:45.235Z,34.64
2022-07-27T00:41:07.012Z,34.84
2022-07-27T00:41:29.691Z,34.72
2022-07-27T00:41:52.834Z,34.83
2022-07-27T00:42:14.540Z,35.02
2022-07-27T00:42:36.325Z,35.14
2022-07-27T00:42:58.099Z,35.45
2022-07-27T00:43:21.969Z,34.43
2022-07-27T00:43:51.125Z,34.37
2022-07-27T00:44:12.846Z,34.51
2022-07-27T00:44:35.569Z,34.50
2022-07-27T00:44:57.756Z,35.14
2022-07-27T00:45:19.426Z,35.03
2022-07-27T00:45:41.612Z,34.99
2022-07-27T00:46:04.538Z,35.02
2022-07-27T00:46:28.820Z,35.06
2022-07-27T00:46:50.588Z,35.10
2022-07-27T00:47:12.396Z,34.92
2022-07-27T00:47:35.121Z,34.89
2022-07-27T00:47:56.813Z,34.80
2022-07-27T00:48:19.542Z,34.80
2022-07-27T00:48:41.279Z,35.02
2022-07-27T00:49:03.104Z,34.40
2022-07-27T00:49:26.848Z,34.72
2022-07-27T00:49:49.517Z,34.28
2022-07-27T00:50:11.576Z,34.56
2022-07-27T00:50:33.524Z,34.83
2022-07-27T00:50:56.564Z,34.90
2022-07-27T00:51:20.032Z,35.17
2022-07-27T00:51:43.522Z,35.11
2022-07-27T00:52:05.655Z,35.16
2022-07-27T00:52:28.904Z,34.50
2022-07-27T00:52:51.178Z,35.00
2022-07-27T00:53:13.942Z,34.84
2022-07-27T00:53:38.144Z,34.73
2022-07-27T00:54:00.575Z,34.60
2022-07-27T00:54:22.757Z,34.72
2022-07-27T00:54:48.070Z,34.65
2022-07-27T00:55:10.396Z,35.09
2022-07-27T00:55:32.911Z,34.88
2022-07-27T00:55:54.655Z,34.76
2022-07-27T00:56:17.553Z,35.09
2022-07-27T00:56:39.636Z,34.85
2022-07-27T00:57:02.712Z,34.95
2022-07-27T00:57:26.259Z,34.74
2022-07-27T00:57:58.701Z,34.57
2022-07-27T00:58:21.492Z,35.30
2022-07-27T00:58:47.468Z,34.83
2022-07-27T00:59:13.211Z,35.01
2022-07-27T00:59:35.609Z,34.84
2022-07-27T00:59:57.345Z,34.93
2022-07-27T01:00:19.046Z,35.45
2022-07-27T01:00:41.754Z,34.95
2022-07-27T01:01:03.992Z,34.86
2022-07-27T01:01:25.770Z,34.74
2022-07-27T01:01:47.608Z,35.21
2022-07-27T01:02:12.025Z,35.19
2022-07-27T01:02:34.323Z,34.92
2022-07-27T01:02:58.941Z,35.09
2022-07-27T01:03:29.799Z,34.85
2022-07-27T01:03:52.623Z,35.31
2022-07-27T01:04:14.741Z,34.97
2022-07-27T01:04:37.089Z,34.76
2022-07-27T01:04:58.841Z,34.80
2022-07-27T01:05:21.924Z,34.81
2022-07-27T01:05:45.881Z,34.58
2022-07-27T01:06:07.953Z,34.91
2022-07-27T01:06:29.711Z,35.21
2022-07-27T01:06:52.820Z,35.07
2022-07-27T01:07:15.008Z,34.95
2022-07-27T01:07:37.752Z,35.13
2022-07-27T01:07:59.518Z,35.60
2022-07-27T01:08:21.329Z,35.07
2022-07-27T01:08:43.449Z,34.98
2022-07-27T01:09:38.439Z,35.03
2022-07-27T01:10:01.149Z,35.28
2022-07-27T01:10:23.296Z,35.62
2022-07-27T01:10:45.635Z,35.43
2022-07-27T01:11:07.691Z,35.34
2022-07-27T01:11:30.357Z,35.75
2022-07-27T01:11:52.064Z,36.07
2022-07-27T01:12:17.340Z,35.39
2022-07-27T01:12:40.001Z,35.38
2022-07-27T01:13:02.221Z,35.40
2022-07-27T01:13:25.840Z,35.51
2022-07-27T01:13:47.694Z,35.25
2022-07-27T01:14:10.068Z,35.33
2022-07-27T01:14:31.970Z,35.57
2022-07-27T01:14:55.910Z,35.65
2022-07-27T01:15:17.900Z,35.65
2022-07-27T01:15:39.995Z,35.20
2022-07-27T01:16:04.765Z,35.19
2022-07-27T01:16:27.582Z,35.50
2022-07-27T01:16:49.297Z,35.57
2022-07-27T01:17:10.983Z,35.81
2022-07-27T01:17:33.614Z,35.56
2022-07-27T01:17:56.315Z,35.53
2022-07-27T01:18:28.333Z,35.80
2022-07-27T01:18:50.506Z,35.75
2022-07-27T01:19:15.067Z,35.61
2022-07-27T01:19:38.004Z,35.14
2022-07-27T01:20:00.203Z,35.19
2022-07-27T01:20:21.934Z,35.49
2022-07-27T01:20:43.581Z,35.25
2022-07-27T01:21:08.186Z,35.55
2022-07-27T01:21:34.507Z,35.31
2022-07-27T01:21:56.349Z,35.52
2022-07-27T01:22:18.332Z,35.38
2022-07-27T01:22:41.005Z,35.59
2022-07-27T01:23:02.664Z,35.51
2022-07-27T01:23:25.129Z,35.12
2022-07-27T01:23:46.832Z,35.23
2022-07-27T01:24:09.697Z,35.42
2022-07-27T01:24:31.332Z,35.58
2022-07-27T01:24:53.299Z,35.73
2022-07-27T01:25:15.305Z,35.43
2022-07-27T01:25:39.545Z,35.73
2022-07-27T01:26:02.159Z,35.74
2022-07-27T01:26:23.924Z,35.39
2022-07-27T01:26:47.540Z,35.92
2022-07-27T01:27:09.361Z,35.66
2022-07-27T01:27:31.007Z,35.52
2022-07-27T01:27:52.679Z,35.76
2022-07-27T01:28:15.273Z,35.98
2022-07-27T01:28:36.945Z,35.61
2022-07-27T01:29:00.393Z,35.27
2022-07-27T01:29:22.117Z,35.76
2022-07-27T01:29:44.892Z,35.83
2022-07-27T01:30:26.350Z,35.97
2022-07-27T01:30:48.138Z,35.85
2022-07-27T01:31:10.945Z,35.99
2022-07-27T01:31:33.854Z,35.96
2022-07-27T01:31:57.315Z,35.91
2022-07-27T01:32:18.954Z,35.90
2022-07-27T01:32:40.577Z,35.90
2022-07-27T01:33:03.594Z,35.33
2022-07-27T01:33:27.971Z,36.10
2022-07-27T01:33:49.614Z,35.68
2022-07-27T01:34:11.283Z,35.66
2022-07-27T01:34:34.531Z,35.37
2022-07-27T01:34:56.216Z,35.75
2022-07-27T01:35:18.119Z,35.76
2022-07-27T01:35:40.109Z,35.80
2022-07-27T01:36:02.704Z,35.99
2022-07-27T01:36:24.512Z,35.46
2022-07-27T01:36:47.557Z,35.77
2022-07-27T01:37:09.363Z,35.78
2022-07-27T01:37:31.093Z,35.80
2022-07-27T01:37:53.699Z,35.99
2022-07-27T01:38:15.413Z,36.06
2022-07-27T01:38:37.084Z,36.03
2022-07-27T01:38:59.757Z,36.27
2022-07-27T01:39:21.578Z,36.21
2022-07-27T01:39:44.401Z,36.16
2022-07-27T01:40:06.643Z,36.00
2022-07-27T01:40:29.424Z,35.85
2022-07-27T01:40:52.527Z,35.95
2022-07-27T01:41:15.297Z,36.26
2022-07-27T01:41:36.947Z,36.05
2022-07-27T01:41:59.506Z,36.12
2022-07-27T01:42:21.652Z,35.97
2022-07-27T01:42:44.269Z,36.32
2022-07-27T01:43:05.957Z,35.77
2022-07-27T01:43:27.596Z,36.09
2022-07-27T01:43:49.570Z,36.16
2022-07-27T01:44:11.317Z,36.25
2022-07-27T01:44:34.221Z,35.91
2022-07-27T01:44:55.911Z,36.32
2022-07-27T01:45:17.829Z,36.29
2022-07-27T01:45:39.837Z,36.20
2022-07-27T01:46:02.667Z,36.28
2022-07-27T01:46:24.474Z,35.85
2022-07-27T01:46:46.301Z,35.88
2022-07-27T01:47:13.944Z,36.01
2022-07-27T01:47:36.489Z,36.08
2022-07-27T01:47:59.209Z,36.14
2022-07-27T01:48:20.917Z,36.19
2022-07-27T01:48:42.680Z,35.93
2022-07-27T01:49:05.036Z,36.61
2022-07-27T01:49:27.824Z,36.48
2022-07-27T01:49:49.496Z,36.33
2022-07-27T01:50:11.509Z,36.06
2022-07-27T01:50:34.324Z,36.29
2022-07-27T01:50:57.172Z,36.11
2022-07-27T01:51:18.821Z,36.15
2022-07-27T01:51:40.460Z,36.24
2022-07-27T01:52:03.476Z,36.38
2022-07-27T01:52:25.142Z,36.23
2022-07-27T01:52:48.608Z,36.18
2022-07-27T01:53:10.914Z,36.04
2022-07-27T01:53:32.738Z,36.25
2022-07-27T01:53:54.569Z,36.05
2022-07-27T01:54:17.921Z,36.16
2022-07-27T01:54:39.602Z,36.36
2022-07-27T01:55:01.203Z,36.30
2022-07-27T01:55:22.921Z,36.10
2022-07-27T01:55:44.855Z,36.37
2022-07-27T01:56:10.780Z,36.69
2022-07-27T01:56:32.489Z,36.46
2022-07-27T01:56:54.273Z,36.04
2022-07-27T01:57:16.067Z,35.99
2022-07-27T01:57:39.518Z,36.16
2022-07-27T01:58:03.836Z,36.07
2022-07-27T01:58:25.603Z,36.11
2022-07-27T01:58:48.705Z,36.47
2022-07-27T01:59:16.483Z,36.60
2022-07-27T01:59:38.809Z,36.63
2022-07-27T02:00:00.469Z,36.52
2022-07-27T02:00:23.297Z,36.74
2022-07-27T02:00:45.167Z,36.44
2022-07-27T02:01:07.458Z,37.02
2022-07-27T02:01:29.171Z,36.84
2022-07-27T02:01:51.994Z,36.12
2022-07-27T02:02:16.013Z,36.01
2022-07-27T02:02:38.320Z,36.24
2022-07-27T02:02:59.994Z,36.49
2022-07-27T02:03:22.749Z,36.26
2022-07-27T02:03:44.461Z,36.74
2022-07-27T02:04:06.149Z,36.55
2022-07-27T02:04:27.966Z,36.44
2022-07-27T02:04:50.738Z,36.50
2022-07-27T02:05:12.577Z,36.56
2022-07-27T02:05:34.941Z,36.25
2022-07-27T02:05:56.723Z,36.55
2022-07-27T02:06:19.378Z,36.66
2022-07-27T02:06:41.535Z,36.73
2022-07-27T02:07:04.589Z,37.11
2022-07-27T02:07:26.290Z,36.83
2022-07-27T02:07:48.016Z,37.06
2022-07-27T02:08:10.728Z,36.73
2022-07-27T02:08:32.785Z,36.93
2022-07-27T02:08:54.458Z,36.54
2022-07-27T02:09:16.125Z,36.64
2022-07-27T02:09:37.839Z,36.80
2022-07-27T02:10:00.462Z,36.77
2022-07-27T02:10:22.213Z,36.48
2022-07-27T02:10:58.790Z,36.59
2022-07-27T02:11:38.881Z,36.91
2022-07-27T02:12:27.709Z,37.16
2022-07-27T02:12:49.607Z,36.73
2022-07-27T02:13:22.209Z,36.66
2022-07-27T02:13:47.232Z,37.19
2022-07-27T02:14:08.927Z,37.40
2022-07-27T02:14:30.551Z,36.74
2022-07-27T02:14:52.861Z,36.69
2022-07-27T02:15:19.755Z,37.04
2022-07-27T02:15:43.339Z,36.41
2022-07-27T02:16:09.642Z,36.71
2022-07-27T02:16:39.955Z,36.55
2022-07-27T02:17:02.126Z,36.81
2022-07-27T02:17:23.980Z,36.80
2022-07-27T02:17:46.281Z,36.79
2022-07-27T02:18:33.262Z,37.03
2022-07-27T02:18:51.055Z,36.95
2022-07-27T02:19:13.035Z,37.40
2022-07-27T02:19:35.999Z,36.92
2022-07-27T02:19:57.658Z,37.20
2022-07-27T02:20:21.274Z,37.14
2022-07-27T02:20:42.972Z,37.01
2022-07-27T02:21:06.765Z,37.49
2022-07-27T02:21:28.410Z,36.80
2022-07-27T02:21:50.053Z,37.02
2022-07-27T02:22:14.069Z,36.80
2022-07-27T02:22:36.234Z,37.04
2022-07-27T02:22:57.940Z,37.12
2022-07-27T02:23:19.607Z,37.02
2022-07-27T02:23:44.448Z,37.10
2022-07-27T02:24:06.985Z,36.86
2022-07-27T02:24:28.662Z,37.22
2022-07-27T02:24:50.397Z,37.36
2022-07-27T02:25:14.747Z,37.01
2022-07-27T02:25:37.902Z,36.95
2022-07-27T02:25:59.749Z,37.21
2022-07-27T02:26:21.418Z,37.32
2022-07-27T02:26:44.083Z,37.34
2022-07-27T02:27:06.384Z,37.40
2022-07-27T02:27:28.244Z,37.36
2022-07-27T02:27:49.958Z,37.56
2022-07-27T02:28:11.732Z,37.51
2022-07-27T02:28:34.676Z,37.13
2022-07-27T02:28:56.391Z,37.33
2022-07-27T02:29:18.117Z,37.15
2022-07-27T02:29:39.767Z,37.32
2022-07-27T02:30:02.625Z,37.60
2022-07-27T02:30:24.305Z,37.47
2022-07-27T02:30:46.735Z,37.21
2022-07-27T02:31:08.544Z,37.33
2022-07-27T02:31:33.055Z,37.42
2022-07-27T02:31:54.834Z,37.32
2022-07-27T02:32:16.572Z,37.08
2022-07-27T02:32:40.437Z,37.32
2022-07-27T02:33:06.306Z,37.40
2022-07-27T02:33:28.055Z,37.15
2022-07-27T02:33:49.722Z,37.16
2022-07-27T02:34:12.381Z,37.27
2022-07-27T02:34:34.082Z,36.81
2022-07-27T02:34:55.746Z,36.94
2022-07-27T02:35:18.741Z,37.40
2022-07-27T02:35:40.953Z,37.01
2022-07-27T02:36:02.710Z,37.21
2022-07-27T02:36:25.350Z,37.00
2022-07-27T02:36:47.026Z,37.27
2022-07-27T02:37:08.813Z,37.27
2022-07-27T02:37:32.411Z,37.09
2022-07-27T02:37:55.119Z,37.30
2022-07-27T02:38:16.925Z,37.63
2022-07-27T02:38:38.600Z,37.27
2022-07-27T02:39:00.267Z,37.22
2022-07-27T02:39:22.942Z,37.22
2022-07-27T02:39:44.581Z,37.50
2022-07-27T02:40:07.485Z,36.85
2022-07-27T02:40:29.212Z,37.18
2022-07-27T02:40:50.978Z,37.14
2022-07-27T02:41:13.658Z,37.34
2022-07-27T02:41:35.348Z,37.45
2022-07-27T02:41:56.966Z,37.50
2022-07-27T02:42:19.173Z,36.93
2022-07-27T02:42:41.905Z,37.43
2022-07-27T02:43:03.619Z,37.32
2022-07-27T02:43:25.345Z,37.40
2022-07-27T02:43:47.063Z,37.51
2022-07-27T02:44:09.681Z,37.47
2022-07-27T02:44:31.786Z,37.57
2022-07-27T02:44:56.632Z,37.52
2022-07-27T02:45:18.402Z,37.62
2022-07-27T02:45:40.286Z,37.53
2022-07-27T02:46:02.950Z,37.65
2022-07-27T02:46:24.767Z,37.57
2022-07-27T02:46:46.508Z,37.70
2022-07-27T02:47:08.267Z,37.62
2022-07-27T02:47:29.958Z,37.44
2022-07-27T02:47:52.573Z,37.62
2022-07-27T02:48:14.718Z,37.54
2022-07-27T02:48:36.476Z,37.69
2022-07-27T02:48:58.337Z,37.93
2022-07-27T02:49:21.109Z,37.64
2022-07-27T02:49:42.850Z,37.64
2022-07-27T02:50:05.415Z,38.07
2022-07-27T02:50:27.404Z,37.66
2022-07-27T02:50:50.082Z,37.35
2022-07-27T02:51:11.825Z,37.17
2022-07-27T02:51:33.476Z,37.21
2022-07-27T02:51:55.236Z,37.32
2022-07-27T02:52:17.886Z,37.57
2022-07-27T02:52:41.036Z,37.31
2022-07-27T02:53:02.752Z,37.16
2022-07-27T02:53:24.443Z,37.50
2022-07-27T02:53:47.114Z,37.40
2022-07-27T02:54:08.826Z,37.43
2022-07-27T02:54:32.421Z,37.33
2022-07-27T02:54:54.569Z,37.14
2022-07-27T02:55:17.257Z,37.39
2022-07-27T02:55:38.961Z,37.71
2022-07-27T02:56:00.701Z,37.63
2022-07-27T02:56:26.781Z,37.70
2022-07-27T02:56:50.133Z,37.52
2022-07-27T02:57:11.810Z,37.95
2022-07-27T02:57:35.920Z,37.53
2022-07-27T02:57:57.687Z,37.92
2022-07-27T02:58:21.150Z,37.87
2022-07-27T02:58:42.885Z,37.75
2022-07-27T02:59:04.536Z,37.38
2022-07-27T02:59:26.772Z,37.70
2022-07-27T02:59:48.411Z,37.66
2022-07-27T03:00:15.228Z,37.54
2022-07-27T03:00:36.949Z,36.94
2022-07-27T03:00:58.990Z,36.92
2022-07-27T03:01:20.994Z,37.37
2022-07-27T03:01:43.752Z,37.40
2022-07-27T03:02:05.431Z,37.72
2022-07-27T03:02:27.211Z,37.49
2022-07-27T03:02:49.255Z,37.76
2022-07-27T03:03:12.457Z,37.94
2022-07-27T03:03:36.209Z,38.37
2022-07-27T03:03:58.977Z,38.15
2022-07-27T03:04:20.865Z,38.14
2022-07-27T03:04:43.738Z,37.89
2022-07-27T03:05:06.712Z,38.26
2022-07-27T03:05:28.566Z,38.19
2022-07-27T03:05:50.272Z,37.79
2022-07-27T03:06:12.990Z,37.95
2022-07-27T03:06:34.715Z,37.77
2022-07-27T03:06:56.483Z,37.90
2022-07-27T03:07:18.152Z,37.66
2022-07-27T03:07:42.201Z,37.58
2022-07-27T03:08:04.337Z,37.85
2022-07-27T03:08:26.031Z,38.06
2022-07-27T03:08:47.753Z,37.87
2022-07-27T03:09:11.236Z,37.78
2022-07-27T03:09:33.684Z,38.22
2022-07-27T03:09:55.425Z,37.89
2022-07-27T03:10:17.162Z,38.07
2022-07-27T03:10:39.869Z,37.98
2022-07-27T03:11:01.780Z,37.88
2022-07-27T03:11:23.493Z,37.93
2022-07-27T03:11:45.226Z,38.24
2022-07-27T03:12:08.588Z,38.20
2022-07-27T03:12:30.377Z,37.62
2022-07-27T03:12:52.063Z,37.67
2022-07-27T03:13:13.716Z,37.61
2022-07-27T03:13:36.408Z,37.77
2022-07-27T03:13:58.155Z,38.02
2022-07-27T03:14:19.865Z,37.98
2022-07-27T03:14:41.550Z,38.07
2022-07-27T03:15:03.796Z,38.21
2022-07-27T03:15:26.635Z,38.26
2022-07-27T03:15:48.297Z,37.93
2022-07-27T03:16:10.083Z,37.97
2022-07-27T03:16:31.863Z,37.99
2022-07-27T03:16:54.780Z,38.19
2022-07-27T03:17:16.585Z,38.37
2022-07-27T03:17:38.292Z,38.37
2022-07-27T03:18:00.099Z,38.09
2022-07-27T03:18:22.726Z,38.15
2022-07-27T03:18:44.352Z,38.20
2022-07-27T03:19:06.246Z,38.19
2022-07-27T03:19:30.419Z,37.99
2022-07-27T03:19:53.144Z,37.96
2022-07-27T03:20:14.858Z,38.22
2022-07-27T03:20:36.497Z,38.41
2022-07-27T03:20:58.675Z,38.36
2022-07-27T03:21:21.307Z,38.35
2022-07-27T03:21:43.269Z,38.49
2022-07-27T03:22:04.935Z,38.50
2022-07-27T03:22:30.591Z,38.46
2022-07-27T03:22:55.190Z,38.32
2022-07-27T03:23:18.156Z,38.26
2022-07-27T03:23:40.380Z,38.40
2022-07-27T03:24:02.405Z,38.61
2022-07-27T03:24:25.019Z,38.27
2022-07-27T03:24:46.772Z,38.56
2022-07-27T03:25:09.813Z,38.11
2022-07-27T03:25:32.480Z,38.11
2022-07-27T03:25:54.112Z,38.03
2022-07-27T03:26:16.667Z,38.09
2022-07-27T03:26:38.317Z,38.06
2022-07-27T03:26:59.959Z,38.18
2022-07-27T03:27:22.613Z,38.03
2022-07-27T03:27:44.291Z,38.26
2022-07-27T03:28:05.970Z,38.00
2022-07-27T03:28:28.616Z,37.89
2022-07-27T03:28:50.283Z,38.03
2022-07-27T03:29:13.617Z,38.29
2022-07-27T03:29:35.704Z,38.10
2022-07-27T03:29:58.654Z,38.02
2022-07-27T03:30:20.508Z,38.64
2022-07-27T03:30:42.240Z,38.44
2022-07-27T03:31:05.031Z,38.17
2022-07-27T03:31:26.880Z,38.20
2022-07-27T03:31:48.590Z,38.20
2022-07-27T03:32:10.252Z,38.36
2022-07-27T03:32:32.942Z,38.50
2022-07-27T03:32:54.679Z,38.51
2022-07-27T03:33:16.821Z,38.32
2022-07-27T03:33:38.499Z,38.53
2022-07-27T03:34:02.208Z,38.17
2022-07-27T03:34:24.033Z,38.40
2022-07-27T03:34:45.681Z,38.36
2022-07-27T03:35:08.025Z,38.55
2022-07-27T03:35:30.700Z,38.59
2022-07-27T03:35:52.409Z,38.36
2022-07-27T03:36:15.009Z,38.38
2022-07-27T03:36:36.828Z,38.60
2022-07-27T03:36:58.495Z,38.31
2022-07-27T03:37:20.254Z,38.39
2022-07-27T03:37:43.316Z,38.59
2022-07-27T03:38:06.311Z,38.85
2022-07-27T03:38:28.027Z,38.90
2022-07-27T03:38:49.965Z,38.76
2022-07-27T03:39:13.526Z,38.68
2022-07-27T03:39:35.380Z,38.87
2022-07-27T03:39:57.052Z,39.12
2022-07-27T03:40:18.816Z,39.00
2022-07-27T03:40:41.610Z,39.24
2022-07-27T03:41:03.592Z,39.28
2022-07-27T03:41:25.256Z,39.07
2022-07-27T03:41:46.883Z,39.38
2022-07-27T03:42:10.527Z,39.34
2022-07-27T03:42:32.230Z,39.12
2022-07-27T03:42:53.936Z,39.11
2022-07-27T03:43:16.571Z,38.58
2022-07-27T03:43:38.233Z,38.92
2022-07-27T03:44:00.019Z,39.17
2022-07-27T03:44:21.699Z,39.13
2022-07-27T03:44:44.489Z,39.13
2022-07-27T03:45:07.839Z,38.91
2022-07-27T03:45:29.585Z,39.08
2022-07-27T03:45:52.256Z,38.94
2022-07-27T03:46:14.104Z,39.22
2022-07-27T03:46:35.806Z,38.84
2022-07-27T03:46:57.481Z,38.87
2022-07-27T03:47:20.097Z,38.97
2022-07-27T03:47:41.759Z,39.26
2022-07-27T03:48:03.609Z,39.40
2022-07-27T03:48:27.130Z,39.36
2022-07-27T03:48:49.895Z,39.20
2022-07-27T03:49:14.535Z,39.43
2022-07-27T03:49:37.267Z,39.74
2022-07-27T03:49:59.872Z,39.69
2022-07-27T03:50:21.920Z,39.34
2022-07-27T03:50:44.577Z,39.36
2022-07-27T03:51:06.491Z,39.34
2022-07-27T03:51:29.092Z,39.69
2022-07-27T03:51:51.031Z,39.93
2022-07-27T03:52:17.530Z,39.94
2022-07-27T03:52:40.549Z,39.82
2022-07-27T03:53:09.168Z,39.98
2022-07-27T03:53:30.788Z,40.04
2022-07-27T03:53:52.509Z,39.90
2022-07-27T03:54:15.617Z,39.59
2022-07-27T03:54:37.225Z,39.65
2022-07-27T03:54:58.954Z,39.56
2022-07-27T03:55:22.055Z,39.64
2022-07-27T03:55:44.200Z,39.39
2022-07-27T03:56:05.931Z,39.38
2022-07-27T03:56:27.621Z,39.52
2022-07-27T03:56:50.251Z,39.94
2022-07-27T03:57:11.965Z,39.96
2022-07-27T03:57:33.700Z,39.94
2022-07-27T03:57:55.485Z,39.78
2022-07-27T03:58:18.601Z,40.02
2022-07-27T03:58:40.332Z,39.94
2022-07-27T03:59:02.094Z,39.85
2022-07-27T03:59:24.718Z,39.51
2022-07-27T03:59:46.483Z,39.83
2022-07-27T04:00:12.209Z,39.80
2022-07-27T04:00:33.839Z,39.52
2022-07-27T04:00:56.535Z,39.40
2022-07-27T04:01:18.326Z,39.49
2022-07-27T04:01:40.106Z,39.50
2022-07-27T04:02:01.868Z,39.59
2022-07-27T04:02:24.662Z,39.90
2022-07-27T04:02:46.640Z,39.72
2022-07-27T04:03:08.332Z,39.58
2022-07-27T04:03:30.074Z,39.77
2022-07-27T04:03:52.736Z,39.96
2022-07-27T04:04:14.479Z,39.79
2022-07-27T04:04:36.205Z,39.62
2022-07-27T04:04:57.892Z,39.52
2022-07-27T04:05:21.744Z,39.52
2022-07-27T04:05:43.458Z,39.72
2022-07-27T04:06:05.168Z,39.94
2022-07-27T04:06:26.978Z,39.29
2022-07-27T04:06:49.614Z,39.47
2022-07-27T04:07:11.323Z,39.35
2022-07-27T04:07:33.028Z,39.50
2022-07-27T04:07:55.630Z,39.71
2022-07-27T04:08:21.129Z,40.09
2022-07-27T04:08:42.782Z,40.13
2022-07-27T04:09:07.980Z,39.88
2022-07-27T04:09:31.339Z,39.49
2022-07-27T04:09:53.667Z,39.57
2022-07-27T04:10:15.360Z,39.98
2022-07-27T04:10:37.573Z,39.73
2022-07-27T04:11:00.386Z,39.92
2022-07-27T04:11:22.064Z,39.89
2022-07-27T04:11:51.183Z,39.93
2022-07-27T04:12:13.485Z,39.66
2022-07-27T04:12:37.618Z,40.06
2022-07-27T04:13:00.472Z,39.87
2022-07-27T04:13:22.746Z,39.81
2022-07-27T04:13:46.565Z,39.74
2022-07-27T04:14:09.122Z,39.82
2022-07-27T04:14:33.662Z,39.71
2022-07-27T04:14:55.354Z,40.27
2022-07-27T04:15:18.894Z,40.17
2022-07-27T04:15:40.571Z,39.78
2022-07-27T04:16:03.202Z,39.99
2022-07-27T04:16:24.842Z,40.09
2022-07-27T04:16:47.173Z,39.98
2022-07-27T04:17:10.013Z,39.78
2022-07-27T04:17:56.510Z,40.28
2022-07-27T04:18:13.451Z,40.26
2022-07-27T04:18:36.121Z,40.43
2022-07-27T04:18:57.790Z,40.61
2022-07-27T04:19:19.440Z,40.44
2022-07-27T04:19:41.121Z,40.31
2022-07-27T04:20:04.122Z,40.44
2022-07-27T04:20:27.673Z,40.48
2022-07-27T04:20:49.307Z,40.59
2022-07-27T04:21:11.019Z,40.61
2022-07-27T04:21:33.500Z,40.29
2022-07-27T04:21:57.114Z,40.42
2022-07-27T04:22:18.913Z,40.53
2022-07-27T04:22:40.740Z,40.50
2022-07-27T04:23:02.364Z,39.97
2022-07-27T04:23:26.308Z,39.77
2022-07-27T04:23:48.002Z,39.79
2022-07-27T04:24:09.661Z,40.06
2022-07-27T04:24:31.332Z,40.21
2022-07-27T04:24:54.053Z,40.30
2022-07-27T04:25:15.870Z,40.27
2022-07-27T04:25:37.596Z,40.46
2022-07-27T04:25:59.680Z,40.20
2022-07-27T04:26:23.308Z,40.11
2022-07-27T04:26:44.990Z,40.32
2022-07-27T04:27:06.704Z,40.47
2022-07-27T04:27:28.386Z,40.35
2022-07-27T04:27:54.281Z,40.31
2022-07-27T04:28:15.999Z,39.88
2022-07-27T04:28:37.689Z,40.08
2022-07-27T04:28:59.341Z,40.21
2022-07-27T04:29:22.599Z,40.34
2022-07-27T04:29:44.537Z,40.38
2022-07-27T04:30:09.685Z,40.26
2022-07-27T04:30:31.651Z,40.25
2022-07-27T04:30:54.611Z,40.33
2022-07-27T04:31:17.155Z,40.15
2022-07-27T04:31:39.046Z,40.52
2022-07-27T04:32:00.697Z,40.29
2022-07-27T04:32:23.393Z,40.38
2022-07-27T04:32:45.114Z,40.56
2022-07-27T04:33:06.803Z,40.51
2022-07-27T04:33:28.533Z,40.19
2022-07-27T04:33:50.459Z,39.97
2022-07-27T04:34:13.202Z,40.16
2022-07-27T04:34:34.880Z,40.20
2022-07-27T04:34:56.537Z,39.88
2022-07-27T04:35:22.592Z,40.14
2022-07-27T04:35:48.647Z,39.96
2022-07-27T04:36:10.416Z,40.17
2022-07-27T04:36:32.160Z,39.88
2022-07-27T04:36:53.965Z,39.62
2022-07-27T04:37:16.748Z,39.65
2022-07-27T04:37:38.485Z,39.67
2022-07-27T04:38:00.202Z,39.80
2022-07-27T04:38:21.868Z,39.90
2022-07-27T04:38:45.918Z,40.22
2022-07-27T04:39:07.731Z,40.20
2022-07-27T04:39:29.554Z,40.06
2022-07-27T04:39:51.232Z,39.84
2022-07-27T04:40:14.094Z,39.94
2022-07-27T04:40:36.457Z,40.01
2022-07-27T04:40:58.567Z,39.90
2022-07-27T04:41:20.276Z,39.79
2022-07-27T04:41:42.938Z,39.83
2022-07-27T04:42:04.841Z,39.84
2022-07-27T04:42:26.778Z,39.88
2022-07-27T04:42:49.838Z,40.02
2022-07-27T04:43:12.619Z,40.31
2022-07-27T04:43:34.331Z,40.54
2022-07-27T04:43:55.970Z,40.33
2022-07-27T04:44:17.710Z,40.33
2022-07-27T04:44:40.379Z,40.75
2022-07-27T04:45:02.025Z,40.82
2022-07-27T04:45:24.350Z,40.67
2022-07-27T04:45:46.093Z,40.60
2022-07-27T04:46:13.293Z,40.24
2022-07-27T04:46:37.070Z,40.27
2022-07-27T04:46:59.257Z,40.30
2022-07-27T04:47:21.020Z,40.27
2022-07-27T04:47:43.616Z,40.42
2022-07-27T04:48:05.976Z,40.25
2022-07-27T04:48:27.669Z,39.86
2022-07-27T04:48:49.765Z,39.89
2022-07-27T04:49:13.080Z,40.11
2022-07-27T04:49:35.045Z,40.17
2022-07-27T04:49:56.833Z,40.34
2022-07-27T04:50:20.139Z,40.38
2022-07-27T04:50:43.818Z,40.29
2022-07-27T04:51:05.516Z,40.53
2022-07-27T04:51:31.176Z,40.42
2022-07-27T04:51:55.853Z,40.12
2022-07-27T04:52:18.997Z,40.25
2022-07-27T04:52:48.360Z,40.25
2022-07-27T04:53:10.496Z,40.40